Meadows Of Dan, Virginia
Current Conditions -  °F | °C
As of 10:55 PM on Tuesday 25 Nov 2014 (Local Time) from KMWK Reporting Station
Overcast Overcast  
Wind Chill: 11°   Ceiling: 6000
Heat Index: 11°   Visibility: 10mi
Dew Point:   Wind: 3mph
Humidity: 49%   Direction: 100°E
Pressure: 30.11"   Gusts: NA
Location:  36.74°N, 80.39°W
Report Text: KMWK 260355Z AUTO 10003KT 10SM OVC060 11/01 A3011 RMK AO2 T01080005
Loading
Personal Weather Stations






























Interactive Weather Map New forecast layout! Learn more

10-Day Weather Forecast

Advertisements
Track Severe Weather on mobile